Time;durP1;ratioP1;P1;durP2;ratioP2;P2;SDS_P1;SDS_P2;PMS_P1;PMS_P2;Temp;Humidity;BMP_temperature;BMP_pressure;BME280_temperature;BME280_humidity;BME280_pressure;Samples;Min_cycle;Max_cycle;Signal;HPM_P1;HPM_P2
2022/10/30 00:01:14;;;;;;;;;;;;;;;14.56;100.00;101628.72;5036626;28;19935;-44
2022/10/30 00:03:39;;;;;;;;;;;;;;;14.56;100.00;101620.66;5036258;28;19925;-43
2022/10/30 00:06:07;;;;;;;;;;;;;;;14.60;100.00;101624.72;5036570;28;20371;-45
2022/10/30 00:08:33;;;;;;;;;;;;;;;14.60;100.00;101629.28;5035835;28;19913;-43
2022/10/30 00:11:03;;;;;;;;;;;;;;;14.58;100.00;101624.03;5037168;28;20370;-44
2022/10/30 00:13:29;;;;;;;;;;;;;;;14.58;100.00;101620.47;5032625;28;19920;-43
2022/10/30 00:15:54;;;;;;;;;;;;;;;14.58;100.00;101620.47;5018161;28;19949;-46
2022/10/30 00:18:19;;;;;;;;;;;;;;;14.55;100.00;101627.88;5041285;28;20453;-43
2022/10/30 00:20:45;;;;;;;;;;;;;;;14.52;100.00;101628.22;5034763;28;19913;-44
2022/10/30 00:23:10;;;;;;;;;;;;;;;14.51;100.00;101621.16;5034617;28;20075;-44
2022/10/30 00:25:35;;;;;;;;;;;;;;;14.46;100.00;101626.22;5037016;28;19924;-44
2022/10/30 00:28:02;;;;;;;;;;;;;;;14.46;100.00;101626.22;5034659;28;19916;-45
2022/10/30 00:30:27;;;;;;;;;;;;;;;14.46;100.00;101623.53;5033376;28;19912;-45
2022/10/30 00:32:52;;;;;;;;;;;;;;;14.44;100.00;101613.94;5035695;28;20444;-45
2022/10/30 00:35:18;;;;;;;;;;;;;;;14.40;100.00;101618.81;5034048;28;20394;-44
2022/10/30 00:37:43;;;;;;;;;;;;;;;14.37;100.00;101611.06;5035568;28;19913;-45
2022/10/30 00:40:12;;;;;;;;;;;;;;;14.32;100.00;101608.91;5033705;28;20505;-45
2022/10/30 00:42:37;;;;;;;;;;;;;;;14.31;100.00;101606.38;5035847;28;20352;-44
2022/10/30 00:45:03;;;;;;;;;;;;;;;14.27;100.00;101608.53;5033829;28;19917;-46
2022/10/30 00:47:39;;;;;;;;;;;;;;;14.25;100.00;101609.72;5031299;28;20344;-44
2022/10/30 00:50:08;;;;;;;;;;;;;;;14.23;100.00;101606.38;5035161;28;20618;-44
2022/10/30 00:52:35;;;;;;;;;;;;;;;14.20;100.00;101614.75;5035979;28;19913;-43
2022/10/30 00:55:02;;;;;;;;;;;;;;;14.15;100.00;101604.50;5034715;28;20276;-48
2022/10/30 00:57:28;;;;;;;;;;;;;;;14.10;100.00;101613.09;5036051;28;19958;-43
2022/10/30 00:59:53;;;;;;;;;;;;;;;14.07;100.00;101609.84;5035178;28;19922;-43
2022/10/30 01:02:20;;;;;;;;;;;;;;;14.02;100.00;101621.13;5036116;28;19913;-44
2022/10/30 01:04:46;;;;;;;;;;;;;;;13.98;100.00;101612.56;5017817;28;20419;-42
2022/10/30 01:07:13;;;;;;;;;;;;;;;13.95;100.00;101612.88;5017710;28;20054;-43
2022/10/30 01:09:39;;;;;;;;;;;;;;;13.95;100.00;101617.38;5035327;28;20533;-44
2022/10/30 01:12:05;;;;;;;;;;;;;;;13.94;100.00;101618.41;5035870;28;19947;-44
2022/10/30 01:14:31;;;;;;;;;;;;;;;13.91;100.00;101624.94;5035912;28;19916;-44
2022/10/30 01:17:16;;;;;;;;;;;;;;;13.90;100.00;101625.97;5035387;28;19962;-47
2022/10/30 01:19:54;;;;;;;;;;;;;;;13.90;100.00;101627.78;5032282;28;20016;-44
2022/10/30 01:22:27;;;;;;;;;;;;;;;13.91;100.00;101626.78;5035230;28;20311;-47
2022/10/30 01:25:04;;;;;;;;;;;;;;;13.91;100.00;101629.47;5034486;28;20528;-44
2022/10/30 01:27:47;;;;;;;;;;;;;;;13.91;100.00;101624.09;5017815;28;19921;-44
2022/10/30 01:30:19;;;;;;;;;;;;;;;13.87;100.00;101623.59;5032485;28;19916;-45
2022/10/30 01:32:53;;;;;;;;;;;;;;;13.87;100.00;101625.44;5035780;28;20097;-43
2022/10/30 01:35:39;;;;;;;;;;;;;;;13.86;100.00;101621.06;5034748;28;20252;-44
2022/10/30 01:38:04;;;;;;;;;;;;;;;13.83;100.00;101621.41;5033396;28;20523;-46
2022/10/30 01:40:31;;;;;;;;;;;;;;;13.83;100.00;101624.91;5038908;28;20015;-43
2022/10/30 01:42:57;;;;;;;;;;;;;;;13.84;100.00;101628.47;5039483;28;19971;-43
2022/10/30 01:45:40;;;;;;;;;;;;;;;13.83;100.00;101624.91;5038140;28;19972;-42
2022/10/30 01:48:24;;;;;;;;;;;;;;;13.80;100.00;101636.84;5039627;28;19916;-44
2022/10/30 01:50:49;;;;;;;;;;;;;;;13.79;100.00;101639.69;5036824;28;20279;-44
2022/10/30 01:53:40;;;;;;;;;;;;;;;13.77;100.00;101631.78;5032818;28;19917;-46
2022/10/30 01:56:14;;;;;;;;;;;;;;;13.77;100.00;101637.16;5025610;28;19943;-42
2022/10/30 01:58:46;;;;;;;;;;;;;;;13.76;100.00;101632.81;5039823;28;20070;-42
2022/10/30 02:01:12;;;;;;;;;;;;;;;13.76;100.00;101640.84;5034120;28;20018;-43
2022/10/30 02:03:37;;;;;;;;;;;;;;;13.75;100.00;101638.34;5040131;28;19975;-46
2022/10/30 02:06:03;;;;;;;;;;;;;;;13.73;100.00;101633.13;5020305;28;20394;-47
2022/10/30 02:08:28;;;;;;;;;;;;;;;13.74;100.00;101633.97;5037842;28;20596;-44
2022/10/30 02:10:54;;;;;;;;;;;;;;;13.74;100.00;101633.97;5038650;28;19916;-44
2022/10/30 02:13:19;;;;;;;;;;;;;;;13.73;100.00;101632.25;5039486;28;19920;-45
2022/10/30 02:15:45;;;;;;;;;;;;;;;13.72;100.00;101638.66;5038768;28;19919;-42
2022/10/30 02:18:10;;;;;;;;;;;;;;;13.70;100.00;101635.28;5039659;28;19920;-43
2022/10/30 02:20:36;;;;;;;;;;;;;;;13.69;100.00;101625.56;5034148;28;21662;-44
2022/10/30 02:23:01;;;;;;;;;;;;;;;13.67;100.00;101633.75;5037677;28;19920;-42
2022/10/30 02:25:26;;;;;;;;;;;;;;;13.66;100.00;101634.75;5037978;28;20070;-42
2022/10/30 02:27:51;;;;;;;;;;;;;;;13.64;100.00;101639.44;5039339;28;19917;-42
2022/10/30 02:30:17;;;;;;;;;;;;;;;13.64;100.00;101638.63;5034770;28;19924;-46
2022/10/30 02:32:42;;;;;;;;;;;;;;;13.62;100.00;101647.66;5038940;28;19917;-44
2022/10/30 02:35:08;;;;;;;;;;;;;;;13.60;100.00;101646.16;5037970;28;19925;-42
2022/10/30 02:37:34;;;;;;;;;;;;;;;13.59;100.00;101648.00;5038581;28;19923;-42
2022/10/30 02:40:00;;;;;;;;;;;;;;;13.55;100.00;101638.56;5037160;28;19967;-44
2022/10/30 02:42:25;;;;;;;;;;;;;;;13.53;100.00;101643.28;5038265;28;19921;-43
2022/10/30 02:44:50;;;;;;;;;;;;;;;13.51;100.00;101655.16;5036879;28;20524;-44
2022/10/30 02:47:15;;;;;;;;;;;;;;;13.49;100.00;101654.47;5038298;28;19923;-45
2022/10/30 02:49:41;;;;;;;;;;;;;;;13.46;100.00;101647.59;5036233;28;19925;-44
2022/10/30 02:52:07;;;;;;;;;;;;;;;13.42;100.00;101644.41;5038212;28;19923;-43
2022/10/30 02:54:32;;;;;;;;;;;;;;;13.41;100.00;101642.72;5036784;28;19931;-43
2022/10/30 02:56:58;;;;;;;;;;;;;;;13.40;100.00;101645.56;5037853;28;19917;-44
2022/10/30 02:59:23;;;;;;;;;;;;;;;13.37;100.00;101648.56;5037442;28;20368;-45
2022/10/30 03:01:48;;;;;;;;;;;;;;;13.36;100.00;101655.78;5037697;28;19960;-43
2022/10/30 03:04:13;;;;;;;;;;;;;;;13.33;100.00;101650.72;5038158;28;19927;-44
2022/10/30 03:06:38;;;;;;;;;;;;;;;13.32;100.00;101648.19;5038101;28;19939;-43
2022/10/30 03:09:04;;;;;;;;;;;;;;;13.29;100.00;101643.97;5037589;28;19986;-43
2022/10/30 03:11:29;;;;;;;;;;;;;;;13.28;100.00;101644.97;5036916;28;20018;-43
2022/10/30 03:13:54;;;;;;;;;;;;;;;13.26;100.00;101644.28;5037821;28;20026;-45
2022/10/30 03:16:23;;;;;;;;;;;;;;;13.25;100.00;101645.28;5037091;28;20304;-43
2022/10/30 03:18:49;;;;;;;;;;;;;;;13.24;100.00;101641.75;5031168;28;20982;-45
2022/10/30 03:21:16;;;;;;;;;;;;;;;13.24;100.00;101636.38;5036570;28;20293;-44
2022/10/30 03:23:41;;;;;;;;;;;;;;;13.23;100.00;101632.00;5037117;28;20004;-46
2022/10/30 03:26:06;;;;;;;;;;;;;;;13.23;100.00;101634.69;5037948;28;20007;-47
2022/10/30 03:28:32;;;;;;;;;;;;;;;13.22;100.00;101633.03;5037813;28;19924;-44
2022/10/30 03:31:16;;;;;;;;;;;;;;;13.22;100.00;101634.84;5036832;28;19925;-45
2022/10/30 03:33:42;;;;;;;;;;;;;;;13.21;100.00;101634.03;5018958;28;20163;-43
2022/10/30 03:36:08;;;;;;;;;;;;;;;13.19;100.00;101633.34;5037174;28;20322;-44
2022/10/30 03:38:34;;;;;;;;;;;;;;;13.19;100.00;101637.88;5036570;28;19916;-41
2022/10/30 03:40:59;;;;;;;;;;;;;;;13.16;100.00;101640.88;5036875;28;20080;-42
2022/10/30 03:43:24;;;;;;;;;;;;;;;13.12;100.00;101639.47;5037352;28;20699;-42
2022/10/30 03:45:51;;;;;;;;;;;;;;;13.09;100.00;101635.28;5036584;28;20527;-42
2022/10/30 03:48:17;;;;;;;;;;;;;;;13.09;100.00;101637.16;5035961;28;19917;-44
2022/10/30 03:50:42;;;;;;;;;;;;;;;13.08;100.00;101641.66;5036119;28;19928;-43
2022/10/30 03:53:07;;;;;;;;;;;;;;;13.07;100.00;101642.66;5037092;28;19917;-43
2022/10/30 03:55:32;;;;;;;;;;;;;;;13.05;100.00;101642.81;5036625;28;20470;-42
2022/10/30 03:57:58;;;;;;;;;;;;;;;13.02;100.00;101648.50;5034523;28;19925;-43
2022/10/30 04:00:23;;;;;;;;;;;;;;;13.01;100.00;101654.00;5036447;28;19924;-43
2022/10/30 04:02:49;;;;;;;;;;;;;;;13.01;100.00;101656.69;5035620;28;19921;-42
2022/10/30 04:05:15;;;;;;;;;;;;;;;12.98;100.00;101654.31;5035848;28;20171;-44
2022/10/30 04:07:40;;;;;;;;;;;;;;;12.96;100.00;101661.69;5036460;28;20225;-43
2022/10/30 04:10:06;;;;;;;;;;;;;;;12.95;100.00;101660.84;5037150;28;20439;-42
2022/10/30 04:12:31;;;;;;;;;;;;;;;12.92;100.00;101661.16;5037658;28;19924;-44
2022/10/30 04:14:56;;;;;;;;;;;;;;;12.91;100.00;101658.63;5036034;28;20672;-44
2022/10/30 04:17:21;;;;;;;;;;;;;;;12.89;100.00;101656.09;5037163;28;19913;-43
2022/10/30 04:19:46;;;;;;;;;;;;;;;12.88;100.00;101657.94;5036269;28;19913;-43
2022/10/30 04:22:11;;;;;;;;;;;;;;;12.87;100.00;101650.06;5036586;28;19966;-42
2022/10/30 04:24:38;;;;;;;;;;;;;;;12.86;100.00;101651.06;5035727;28;20299;-42
2022/10/30 04:27:03;;;;;;;;;;;;;;;12.85;100.00;101642.19;5037140;28;19919;-43
2022/10/30 04:29:28;;;;;;;;;;;;;;;12.85;100.00;101644.84;5035538;28;19913;-43
2022/10/30 04:31:54;;;;;;;;;;;;;;;12.85;100.00;101644.84;5036019;28;20121;-44
2022/10/30 04:34:19;;;;;;;;;;;;;;;12.85;100.00;101647.53;5036378;28;20520;-44
2022/10/30 04:36:44;;;;;;;;;;;;;;;12.89;100.00;101648.06;5035802;28;19969;-45
2022/10/30 04:39:09;;;;;;;;;;;;;;;12.90;100.00;101640.84;5035816;28;19918;-43
2022/10/30 04:41:35;;;;;;;;;;;;;;;12.90;100.00;101639.03;5031205;28;20319;-43
2022/10/30 04:44:00;;;;;;;;;;;;;;;12.91;100.00;101632.66;5035444;28;20141;-43
2022/10/30 04:46:25;;;;;;;;;;;;;;;12.91;100.00;101621.94;5035980;28;19916;-43
2022/10/30 04:48:51;;;;;;;;;;;;;;;12.91;100.00;101623.78;5036370;28;19920;-44
2022/10/30 04:51:16;;;;;;;;;;;;;;;12.89;100.00;101626.63;5035080;28;20394;-47
2022/10/30 04:53:41;;;;;;;;;;;;;;;12.87;100.00;101626.78;5034255;28;20288;-43
2022/10/30 04:56:06;;;;;;;;;;;;;;;12.85;100.00;101619.91;5035697;28;20411;-45
2022/10/30 04:58:32;;;;;;;;;;;;;;;12.85;100.00;101619.91;5036166;28;19917;-44
2022/10/30 05:01:01;;;;;;;;;;;;;;;12.84;100.00;101627.06;5019034;28;20397;-40
2022/10/30 05:03:27;;;;;;;;;;;;;;;12.82;100.00;101621.03;5036153;28;19932;-44
2022/10/30 05:05:56;;;;;;;;;;;;;;;12.83;100.00;101619.19;5034336;28;19920;-44
2022/10/30 05:08:22;;;;;;;;;;;;;;;12.79;100.00;101628.56;5030476;28;19923;-44
2022/10/30 05:10:47;;;;;;;;;;;;;;;12.76;100.00;101620.81;5035863;28;19932;-43
2022/10/30 05:13:12;;;;;;;;;;;;;;;12.74;100.00;101629.00;5035004;28;19996;-45
2022/10/30 05:15:37;;;;;;;;;;;;;;;12.73;100.00;101621.13;5035154;28;19917;-42
2022/10/30 05:18:02;;;;;;;;;;;;;;;12.71;100.00;101620.44;5032197;28;19956;-47
2022/10/30 05:20:28;;;;;;;;;;;;;;;12.67;100.00;101618.06;5033482;28;19940;-43
2022/10/30 05:22:57;;;;;;;;;;;;;;;12.63;100.00;101635.47;5034639;28;20236;-42
2022/10/30 05:25:22;;;;;;;;;;;;;;;12.60;100.00;101638.47;5034957;28;19944;-43
2022/10/30 05:27:47;;;;;;;;;;;;;;;12.59;100.00;101638.59;5036077;28;20356;-47
2022/10/30 05:30:12;;;;;;;;;;;;;;;12.55;100.00;101643.44;5034803;28;20371;-45
2022/10/30 05:32:38;;;;;;;;;;;;;;;12.52;100.00;101641.06;5035514;28;20057;-45
2022/10/30 05:35:03;;;;;;;;;;;;;;;12.48;100.00;101639.69;5034415;28;20011;-43
2022/10/30 05:37:28;;;;;;;;;;;;;;;12.43;100.00;101644.69;5034044;28;20509;-43
2022/10/30 05:39:53;;;;;;;;;;;;;;;12.38;100.00;101642.44;5034065;28;19921;-44
2022/10/30 05:42:18;;;;;;;;;;;;;;;12.36;100.00;101643.63;5035100;28;20006;-43
2022/10/30 05:44:44;;;;;;;;;;;;;;;12.32;100.00;101638.56;5034048;28;19928;-43
2022/10/30 05:47:10;;;;;;;;;;;;;;;12.30;100.00;101632.53;5035687;28;19921;-42
2022/10/30 05:49:35;;;;;;;;;;;;;;;12.28;100.00;101631.81;5034768;28;20415;-43
2022/10/30 05:52:00;;;;;;;;;;;;;;;12.27;100.00;101630.16;5034151;28;20012;-44
2022/10/30 05:54:25;;;;;;;;;;;;;;;12.27;100.00;101630.16;5033798;28;19944;-45
2022/10/30 05:56:51;;;;;;;;;;;;;;;12.26;100.00;101636.47;5034169;28;19916;-43
2022/10/30 05:59:16;;;;;;;;;;;;;;;12.26;100.00;101630.28;5035734;28;20506;-45
2022/10/30 06:01:42;;;;;;;;;;;;;;;12.24;100.00;101633.13;5035277;28;20395;-45
2022/10/30 06:04:07;;;;;;;;;;;;;;;12.23;100.00;101628.75;5035806;28;20399;-45
2022/10/30 06:06:32;;;;;;;;;;;;;;;12.24;100.00;101634.97;5035113;28;19920;-42
2022/10/30 06:08:57;;;;;;;;;;;;;;;12.21;100.00;101632.59;5016737;28;20372;-43
2022/10/30 06:11:22;;;;;;;;;;;;;;;12.20;100.00;101633.56;5034881;28;19924;-44
2022/10/30 06:13:48;;;;;;;;;;;;;;;12.18;100.00;101633.72;5035685;28;20150;-44
2022/10/30 06:16:13;;;;;;;;;;;;;;;12.17;100.00;101639.22;5034624;28;19913;-42
2022/10/30 06:18:38;;;;;;;;;;;;;;;12.15;100.00;101635.88;5035756;28;20438;-44
2022/10/30 06:21:03;;;;;;;;;;;;;;;12.12;100.00;101632.50;5034716;28;19912;-43
2022/10/30 06:23:28;;;;;;;;;;;;;;;12.10;100.00;101622.91;5034530;28;20596;-45
2022/10/30 06:25:54;;;;;;;;;;;;;;;12.09;100.00;101618.59;5037185;28;19919;-45
2022/10/30 06:28:19;;;;;;;;;;;;;;;12.07;100.00;101617.91;5039484;28;19923;-45
2022/10/30 06:30:44;;;;;;;;;;;;;;;12.05;100.00;101614.50;5038229;28;19913;-43
2022/10/30 06:33:09;;;;;;;;;;;;;;;12.04;100.00;101618.19;5039381;28;19921;-42
2022/10/30 06:35:34;;;;;;;;;;;;;;;12.01;100.00;101621.16;5037837;28;20383;-44
2022/10/30 06:38:00;;;;;;;;;;;;;;;11.98;100.00;101616.94;5025790;28;20000;-44
2022/10/30 06:40:25;;;;;;;;;;;;;;;11.96;100.00;101615.44;5037045;28;19917;-46
2022/10/30 06:42:52;;;;;;;;;;;;;;;11.93;100.00;101613.88;5036864;28;20069;-41
2022/10/30 06:45:18;;;;;;;;;;;;;;;11.93;100.00;101622.78;5044108;28;19920;-42
2022/10/30 06:47:43;;;;;;;;;;;;;;;11.95;100.00;101622.63;5037586;28;20355;-43
2022/10/30 06:50:10;;;;;;;;;;;;;;;11.93;100.00;101619.22;5037050;28;19924;-45
2022/10/30 06:52:35;;;;;;;;;;;;;;;11.93;100.00;101622.78;5018534;28;20353;-45
2022/10/30 06:55:00;;;;;;;;;;;;;;;11.94;100.00;101624.44;5018218;28;19923;-47
2022/10/30 06:57:25;;;;;;;;;;;;;;;11.94;100.00;101624.44;5037412;28;19912;-43
2022/10/30 06:59:51;;;;;;;;;;;;;;;11.95;100.00;101619.94;5041184;28;19917;-43
2022/10/30 07:02:16;;;;;;;;;;;;;;;11.98;100.00;101618.78;5038476;28;20363;-42
2022/10/30 07:04:41;;;;;;;;;;;;;;;12.00;100.00;101616.78;5041756;28;20049;-44
2022/10/30 07:07:06;;;;;;;;;;;;;;;12.02;100.00;101607.63;5036950;28;20211;-44
2022/10/30 07:09:32;;;;;;;;;;;;;;;12.07;100.00;101609.88;5038939;28;19916;-44
2022/10/30 07:11:57;;;;;;;;;;;;;;;12.12;100.00;101612.94;5039638;28;20380;-45
2022/10/30 07:14:22;;;;;;;;;;;;;;;12.18;100.00;101620.34;5037085;28;19920;-43
2022/10/30 07:16:48;;;;;;;;;;;;;;;12.20;100.00;101620.19;5037642;28;19991;-44
2022/10/30 07:19:13;;;;;;;;;;;;;;;12.22;100.00;101613.69;5036186;28;20081;-45
2022/10/30 07:21:38;;;;;;;;;;;;;;;12.26;100.00;101617.72;5036169;28;19917;-47
2022/10/30 07:24:03;;;;;;;;;;;;;;;12.29;100.00;101630.00;5035244;28;19921;-45
2022/10/30 07:26:29;;;;;;;;;;;;;;;12.31;100.00;101622.63;5035804;28;19932;-44
2022/10/30 07:28:54;;;;;;;;;;;;;;;12.33;100.00;101623.31;5035987;28;20008;-46
2022/10/30 07:31:19;;;;;;;;;;;;;;;12.37;100.00;101618.50;5036025;28;20213;-44
2022/10/30 07:33:44;;;;;;;;;;;;;;;12.39;100.00;101628.06;5036846;28;19916;-42
2022/10/30 07:36:09;;;;;;;;;;;;;;;12.44;100.00;101628.44;5035640;28;19923;-44
2022/10/30 07:38:35;;;;;;;;;;;;;;;12.49;100.00;101633.31;5036516;28;19943;-43
2022/10/30 07:41:00;;;;;;;;;;;;;;;12.53;100.00;101626.69;5037196;28;19921;-42
2022/10/30 07:43:25;;;;;;;;;;;;;;;12.57;100.00;101632.56;5036824;28;19920;-45
2022/10/30 07:45:50;;;;;;;;;;;;;;;12.59;100.00;101626.06;5035808;28;20086;-43
2022/10/30 07:48:15;;;;;;;;;;;;;;;12.62;100.00;101616.88;5036883;28;19917;-41
2022/10/30 07:50:41;;;;;;;;;;;;;;;12.67;100.00;101619.91;5035314;28;20000;-41
2022/10/30 07:53:06;;;;;;;;;;;;;;;12.72;100.00;101611.41;5038391;28;19966;-44
2022/10/30 07:55:31;;;;;;;;;;;;;;;12.75;100.00;101614.63;5020640;28;19920;-43
2022/10/30 07:57:56;;;;;;;;;;;;;;;12.79;100.00;101615.16;5035933;28;20382;-42
2022/10/30 08:00:21;;;;;;;;;;;;;;;12.84;100.00;101619.03;5035638;28;19924;-45
2022/10/30 08:02:50;;;;;;;;;;;;;;;12.90;100.00;101624.75;5021788;28;19924;-44
2022/10/30 08:05:16;;;;;;;;;;;;;;;12.94;100.00;101624.31;5019238;28;19955;-42
2022/10/30 08:07:44;;;;;;;;;;;;;;;12.97;100.00;101625.84;5030260;28;19945;-43
2022/10/30 08:10:09;;;;;;;;;;;;;;;13.02;100.00;101621.69;5034762;28;19929;-44
2022/10/30 08:12:35;;;;;;;;;;;;;;;13.10;100.00;101618.19;5036252;28;20003;-44
2022/10/30 08:15:00;;;;;;;;;;;;;;;13.19;100.00;101619.09;5033400;28;19924;-46
2022/10/30 08:17:25;;;;;;;;;;;;;;;13.28;100.00;101609.25;5034606;28;19909;-46
2022/10/30 08:19:51;;;;;;;;;;;;;;;13.35;100.00;101616.50;5028176;28;20282;-45
2022/10/30 08:22:16;;;;;;;;;;;;;;;13.43;100.00;101605.00;5035141;28;20453;-42
2022/10/30 08:24:43;;;;;;;;;;;;;;;13.53;100.00;101611.06;5035872;28;19925;-42
2022/10/30 08:27:08;;;;;;;;;;;;;;;13.60;100.00;101612.09;5037821;28;19938;-42
2022/10/30 08:29:33;;;;;;;;;;;;;;;13.66;100.00;101613.28;5036486;28;20371;-43
2022/10/30 08:31:59;;;;;;;;;;;;;;;13.73;100.00;101626.91;5035858;28;20030;-41
2022/10/30 08:34:26;;;;;;;;;;;;;;;13.80;100.00;101636.00;5035586;28;20303;-47
2022/10/30 08:36:51;;;;;;;;;;;;;;;13.87;100.00;101628.97;5033396;28;19913;-47
2022/10/30 08:39:17;;;;;;;;;;;;;;;13.95;100.00;101633.50;5035853;28;19967;-44
2022/10/30 08:41:42;;;;;;;;;;;;;;;14.00;100.00;101639.22;5036555;28;20553;-43
2022/10/30 08:44:07;;;;;;;;;;;;;;;14.04;100.00;101629.03;5035527;28;19917;-43
2022/10/30 08:46:32;;;;;;;;;;;;;;;14.04;100.00;101624.47;5033928;28;19920;-45
2022/10/30 08:48:58;;;;;;;;;;;;;;;14.05;100.00;101623.44;5034369;28;19979;-48
2022/10/30 08:51:23;;;;;;;;;;;;;;;14.07;100.00;101626.84;5015097;28;19967;-44
2022/10/30 08:53:51;;;;;;;;;;;;;;;14.15;100.00;101628.69;5034505;28;19916;-45
2022/10/30 08:56:16;;;;;;;;;;;;;;;14.20;100.00;101625.50;5034895;28;20104;-47
2022/10/30 08:58:41;;;;;;;;;;;;;;;14.28;100.00;101628.22;5035665;28;20396;-44
2022/10/30 09:01:06;;;;;;;;;;;;;;;14.36;100.00;101623.69;5035655;28;20418;-47
2022/10/30 09:03:32;;;;;;;;;;;;;;;14.45;100.00;101629.91;5036132;28;19959;-45
2022/10/30 09:05:58;;;;;;;;;;;;;;;14.57;100.00;101621.50;5034266;28;20462;-43
2022/10/30 09:08:23;;;;;;;;;;;;;;;14.66;100.00;101615.13;5032172;28;19917;-42
2022/10/30 09:10:52;;;;;;;;;;;;;;;14.78;100.00;101621.84;5034584;28;20023;-45
2022/10/30 09:13:18;;;;;;;;;;;;;;;14.90;100.00;101616.94;5035684;28;19927;-43
2022/10/30 09:15:43;;;;;;;;;;;;;;;15.06;100.00;101608.03;5035352;28;20308;-47
2022/10/30 09:18:08;;;;;;;;;;;;;;;15.26;100.00;101595.03;5036408;28;19917;-46
2022/10/30 09:20:33;;;;;;;;;;;;;;;15.47;100.00;101594.44;5016284;28;19996;-45
2022/10/30 09:22:58;;;;;;;;;;;;;;;15.69;100.00;101592.81;5035372;28;20056;-46
2022/10/30 09:25:24;;;;;;;;;;;;;;;15.94;100.00;101596.22;5034602;28;19945;-43
2022/10/30 09:27:49;;;;;;;;;;;;;;;16.17;100.00;101598.94;5035346;28;19924;-44
2022/10/30 09:30:14;;;;;;;;;;;;;;;16.30;100.00;101598.31;5034780;28;19925;-43
2022/10/30 09:32:39;;;;;;;;;;;;;;;16.35;100.00;101604.00;5035347;28;20117;-43
2022/10/30 09:35:05;;;;;;;;;;;;;;;16.44;100.00;101606.66;5016341;28;20429;-42
2022/10/30 09:37:34;;;;;;;;;;;;;;;16.58;100.00;101600.44;5035075;28;20016;-43
2022/10/30 09:39:59;;;;;;;;;;;;;;;16.74;100.00;101605.69;5033180;28;19974;-48
2022/10/30 09:42:27;;;;;;;;;;;;;;;16.91;100.00;101605.56;5034382;28;19917;-46
2022/10/30 09:45:03;;;;;;;;;;;;;;;17.02;100.00;101612.38;5033589;28;20343;-45
2022/10/30 09:47:34;;;;;;;;;;;;;;;17.11;100.00;101617.50;5035569;28;20014;-47
2022/10/30 09:50:17;;;;;;;;;;;;;;;17.11;100.00;101620.19;5032819;28;19958;-44
2022/10/30 09:52:55;;;;;;;;;;;;;;;17.11;100.00;101633.69;5034655;28;19924;-43
2022/10/30 09:55:37;;;;;;;;;;;;;;;17.10;100.00;101636.56;5034272;28;19920;-47
2022/10/30 09:58:13;;;;;;;;;;;;;;;17.03;100.00;101641.03;5016470;28;20398;-44
2022/10/30 10:00:42;;;;;;;;;;;;;;;16.97;100.00;101642.59;5038212;28;19996;-48
2022/10/30 10:03:16;;;;;;;;;;;;;;;16.95;100.00;101637.41;5038543;28;19909;-45
2022/10/30 10:05:41;;;;;;;;;;;;;;;17.02;100.00;101642.88;5038197;28;19924;-44
2022/10/30 10:08:10;;;;;;;;;;;;;;;17.10;100.00;101641.97;5038661;28;20023;-46
2022/10/30 10:10:35;;;;;;;;;;;;;;;17.18;100.00;101643.75;5038515;28;19924;-44
2022/10/30 10:13:01;;;;;;;;;;;;;;;17.26;100.00;101631.00;5038521;28;20410;-43
2022/10/30 10:15:53;;;;;;;;;;;;;;;17.40;100.00;101628.50;5037947;28;19923;-44
2022/10/30 10:18:27;;;;;;;;;;;;;;;17.60;100.00;101631.44;5029982;28;19921;-45
2022/10/30 10:20:55;;;;;;;;;;;;;;;17.78;100.00;101631.03;5025056;28;20041;-44
2022/10/30 10:23:29;;;;;;;;;;;;;;;17.88;100.00;101627.03;5037069;28;19917;-45
2022/10/30 10:25:57;;;;;;;;;;;;;;;17.99;100.00;101625.72;5033014;28;20488;-43
2022/10/30 10:28:45;;;;;;;;;;;;;;;18.04;100.00;101625.13;5038887;28;19963;-44
2022/10/30 10:31:19;;;;;;;;;;;;;;;18.10;100.00;101620.84;5037792;28;19924;-45
2022/10/30 10:33:56;;;;;;;;;;;;;;;18.16;100.00;101612.78;5037668;28;19917;-44
2022/10/30 10:36:40;;;;;;;;;;;;;;;18.23;100.00;101616.41;5026330;28;20435;-46
2022/10/30 10:39:11;;;;;;;;;;;;;;;18.32;100.00;101622.50;5037901;28;19916;-47
2022/10/30 10:41:48;;;;;;;;;;;;;;;18.39;100.00;101623.41;5038016;28;19917;-43
2022/10/30 10:44:23;;;;;;;;;;;;;;;18.44;100.00;101610.13;5037754;28;19916;-45
2022/10/30 10:47:09;;;;;;;;;;;;;;;18.55;100.00;101616.03;5038111;28;19917;-45
2022/10/30 10:49:44;;;;;;;;;;;;;;;18.72;100.00;101612.03;4997484;28;19917;-43
2022/10/30 10:52:12;;;;;;;;;;;;;;;18.79;100.00;101612.91;5034460;28;20315;-45
2022/10/30 10:54:42;;;;;;;;;;;;;;;18.89;100.00;101615.31;5037588;28;19929;-45
2022/10/30 10:57:13;;;;;;;;;;;;;;;19.03;100.00;101629.78;5038374;28;19917;-45
2022/10/30 10:59:41;;;;;;;;;;;;;;;19.12;100.00;101623.16;5008938;28;20255;-44
2022/10/30 11:02:06;;;;;;;;;;;;;;;19.19;100.00;101618.63;5040320;28;19913;-43
2022/10/30 11:04:37;;;;;;;;;;;;;;;19.25;100.00;101619.72;5037404;28;19921;-47
2022/10/30 11:07:12;;;;;;;;;;;;;;;19.27;100.00;101620.34;5034555;28;19917;-47
2022/10/30 11:09:38;;;;;;;;;;;;;;;19.38;100.00;101624.34;5037769;28;19939;-43
2022/10/30 11:12:03;;;;;;;;;;;;;;;19.50;100.00;101609.22;5037312;28;19920;-46
2022/10/30 11:14:29;;;;;;;;;;;;;;;19.62;100.00;101606.75;5038026;28;19924;-44
2022/10/30 11:17:13;;;;;;;;;;;;;;;19.70;100.00;101603.84;5036280;28;19913;-45
2022/10/30 11:19:38;;;;;;;;;;;;;;;19.88;100.00;101597.06;5038772;28;19921;-45
2022/10/30 11:22:11;;;;;;;;;;;;;;;20.00;100.00;101595.41;5036408;28;20513;-44
2022/10/30 11:24:37;;;;;;;;;;;;;;;20.13;100.00;101595.44;5037126;28;20000;-44
2022/10/30 11:27:15;;;;;;;;;;;;;;;20.24;100.00;101583.13;5039554;28;20003;-49
2022/10/30 11:29:46;;;;;;;;;;;;;;;20.43;96.79;101592.31;5037474;28;19962;-44
2022/10/30 11:32:16;;;;;;;;;;;;;;;20.51;96.87;101588.59;5036890;28;19920;-44
2022/10/30 11:34:41;;;;;;;;;;;;;;;20.59;100.00;101590.28;5036469;28;20016;-44
2022/10/30 11:37:27;;;;;;;;;;;;;;;20.66;100.00;101591.94;5020807;28;20003;-45
2022/10/30 11:40:03;;;;;;;;;;;;;;;20.63;97.14;101599.69;5034647;28;20423;-45
2022/10/30 11:42:28;;;;;;;;;;;;;;;20.66;100.00;101596.56;5036863;28;20388;-43
2022/10/30 11:44:54;;;;;;;;;;;;;;;20.74;97.08;101599.06;5036534;28;19928;-43
2022/10/30 11:47:21;;;;;;;;;;;;;;;20.77;97.18;101592.34;5036221;28;19917;-47
2022/10/30 11:49:51;;;;;;;;;;;;;;;20.76;95.03;101593.41;5036247;28;19931;-46
2022/10/30 11:52:18;;;;;;;;;;;;;;;20.81;97.86;101593.63;5043486;28;20573;-44
2022/10/30 11:54:47;;;;;;;;;;;;;;;20.97;94.38;101584.19;5036441;28;20333;-45
2022/10/30 11:57:17;;;;;;;;;;;;;;;21.04;92.58;101583.13;5035338;28;20456;-50
2022/10/30 11:59:45;;;;;;;;;;;;;;;21.13;93.23;101588.31;5036412;28;19935;-48
2022/10/30 12:02:21;;;;;;;;;;;;;;;21.24;89.87;101590.38;5037138;28;19963;-44
2022/10/30 12:04:46;;;;;;;;;;;;;;;21.30;95.01;101592.25;5036663;28;19921;-45
2022/10/30 12:07:23;;;;;;;;;;;;;;;21.36;91.18;101588.66;5030377;28;19919;-47
2022/10/30 12:09:48;;;;;;;;;;;;;;;21.27;92.15;101583.69;5036007;28;19923;-46
2022/10/30 12:12:35;;;;;;;;;;;;;;;21.22;95.18;101577.00;5036457;28;20011;-49
2022/10/30 12:15:09;;;;;;;;;;;;;;;21.08;93.01;101575.38;5033482;28;20421;-46
2022/10/30 12:17:34;;;;;;;;;;;;;;;20.97;94.69;101567.88;5025180;28;19994;-45
2022/10/30 12:19:59;;;;;;;;;;;;;;;20.93;93.49;101569.38;5034051;28;20399;-43
2022/10/30 12:22:30;;;;;;;;;;;;;;;20.82;91.51;101565.41;5032761;28;19964;-46
2022/10/30 12:24:56;;;;;;;;;;;;;;;20.67;92.05;101562.91;5034070;28;19928;-43
2022/10/30 12:27:21;;;;;;;;;;;;;;;20.51;93.20;101569.59;5036441;28;20730;-44
2022/10/30 12:29:58;;;;;;;;;;;;;;;20.37;94.50;101566.06;5036476;28;19908;-43